createdAt,value
2023-05-07T00:02:18.662Z,100372.33
2023-05-07T00:04:46.509Z,100369.73
2023-05-07T00:07:13.561Z,100372.54
2023-05-07T00:09:41.024Z,100368.89
2023-05-07T00:12:08.714Z,100368.58
2023-05-07T00:14:35.643Z,100367.58
2023-05-07T00:17:02.600Z,100364.45
2023-05-07T00:19:29.543Z,100359.60
2023-05-07T00:21:57.213Z,100355.09
2023-05-07T00:24:24.157Z,100358.08
2023-05-07T00:26:51.347Z,100355.83
2023-05-07T00:29:18.266Z,100353.79
2023-05-07T00:31:45.249Z,100355.39
2023-05-07T00:34:12.170Z,100358.55
2023-05-07T00:36:39.119Z,100355.08
2023-05-07T00:39:06.031Z,100355.63
2023-05-07T00:41:32.990Z,100359.83
2023-05-07T00:43:59.974Z,100360.89
2023-05-07T00:46:27.411Z,100364.05
2023-05-07T00:48:54.615Z,100361.64
2023-05-07T00:51:21.557Z,100359.41
2023-05-07T00:53:48.711Z,100363.46
2023-05-07T00:56:15.612Z,100369.61
2023-05-07T00:58:42.492Z,100370.88
2023-05-07T01:01:09.505Z,100375.33
2023-05-07T01:03:36.709Z,100374.16
2023-05-07T01:06:04.424Z,100376.11
2023-05-07T01:08:31.842Z,100373.72
2023-05-07T01:10:58.787Z,100375.71
2023-05-07T01:13:26.063Z,100379.59
2023-05-07T01:15:53.409Z,100378.21
2023-05-07T01:18:20.566Z,100377.85
2023-05-07T01:20:47.522Z,100378.02
2023-05-07T01:23:14.689Z,100380.34
2023-05-07T01:25:41.725Z,100380.73
2023-05-07T01:28:08.982Z,100380.25
2023-05-07T01:30:37.114Z,100383.79
2023-05-07T01:33:09.929Z,100389.27
2023-05-07T01:35:41.806Z,100388.27
2023-05-07T01:38:08.963Z,100390.38
2023-05-07T01:40:36.319Z,100387.25
2023-05-07T01:43:03.685Z,100389.87
2023-05-07T01:45:32.162Z,100392.45
2023-05-07T01:48:03.047Z,100395.55
2023-05-07T01:50:30.186Z,100400.89
2023-05-07T01:52:57.142Z,100404.20
2023-05-07T01:55:24.794Z,100400.02
2023-05-07T01:57:51.858Z,100408.20
2023-05-07T02:00:20.139Z,100412.02
2023-05-07T02:02:47.200Z,100411.49
2023-05-07T02:05:31.802Z,100415.11
2023-05-07T02:08:05.227Z,100411.23
2023-05-07T02:10:32.275Z,100415.71
2023-05-07T02:13:00.848Z,100413.45
2023-05-07T02:15:28.029Z,100410.20
2023-05-07T02:18:00.494Z,100409.87
2023-05-07T02:20:27.865Z,100412.31
2023-05-07T02:22:54.815Z,100407.61
2023-05-07T02:25:21.678Z,100404.30
2023-05-07T02:27:48.547Z,100402.77
2023-05-07T02:30:17.155Z,100407.30
2023-05-07T02:32:44.486Z,100410.98
2023-05-07T02:35:11.729Z,100420.02
2023-05-07T02:37:38.681Z,100424.72
2023-05-07T02:40:06.831Z,100428.02
2023-05-07T02:42:33.761Z,100429.24
2023-05-07T02:45:01.179Z,100428.05
2023-05-07T02:47:30.288Z,100429.09
2023-05-07T02:49:58.286Z,100428.23
2023-05-07T02:52:25.194Z,100431.18
2023-05-07T02:54:52.141Z,100429.45
2023-05-07T02:57:19.097Z,100427.17
2023-05-07T02:59:45.914Z,100429.95
2023-05-07T03:02:13.430Z,100431.33
2023-05-07T03:04:40.776Z,100437.92
2023-05-07T03:07:07.927Z,100442.77
2023-05-07T03:09:34.881Z,100443.27
2023-05-07T03:12:02.907Z,100441.55
2023-05-07T03:14:30.015Z,100445.38
2023-05-07T03:16:57.077Z,100445.24
2023-05-07T03:19:24.006Z,100446.45
2023-05-07T03:21:50.853Z,100447.31
2023-05-07T03:24:17.805Z,100449.34
2023-05-07T03:26:44.955Z,100450.17
2023-05-07T03:29:12.026Z,100452.06
2023-05-07T03:31:38.907Z,100457.59
2023-05-07T03:34:06.232Z,100464.55
2023-05-07T03:36:33.144Z,100466.61
2023-05-07T03:39:00.175Z,100457.71
2023-05-07T03:41:31.346Z,100455.95
2023-05-07T03:43:58.318Z,100456.81
2023-05-07T03:46:27.537Z,100450.90
2023-05-07T03:48:55.415Z,100453.53
2023-05-07T03:51:22.254Z,100456.13
2023-05-07T03:53:49.502Z,100457.99
2023-05-07T03:56:17.863Z,100456.23
2023-05-07T03:58:47.195Z,100459.67
2023-05-07T04:01:14.152Z,100460.00
2023-05-07T04:03:41.260Z,100464.36
2023-05-07T04:06:08.171Z,100466.23
2023-05-07T04:08:35.829Z,100468.30
2023-05-07T04:11:03.690Z,100469.50
2023-05-07T04:13:32.186Z,100468.48
2023-05-07T04:16:00.275Z,100467.77
2023-05-07T04:18:27.391Z,100461.80
2023-05-07T04:20:54.450Z,100460.71
2023-05-07T04:23:21.633Z,100461.18
2023-05-07T04:25:48.929Z,100459.04
2023-05-07T04:28:30.669Z,100454.29
2023-05-07T04:30:58.844Z,100453.92
2023-05-07T04:33:26.412Z,100446.95
2023-05-07T04:35:53.361Z,100447.95
2023-05-07T04:38:20.269Z,100444.42
2023-05-07T04:40:48.696Z,100444.54
2023-05-07T04:43:18.003Z,100442.95
2023-05-07T04:45:50.442Z,100440.98
2023-05-07T04:48:20.271Z,100442.70
2023-05-07T04:50:51.443Z,100444.27
2023-05-07T04:53:19.014Z,100443.23
2023-05-07T04:55:48.832Z,100440.23
2023-05-07T04:58:15.921Z,100442.16
2023-05-07T05:00:43.754Z,100438.91
2023-05-07T05:03:10.881Z,100436.34
2023-05-07T05:05:39.196Z,100429.35
2023-05-07T05:08:06.768Z,100423.83
2023-05-07T05:10:36.059Z,100424.25
2023-05-07T05:13:03.240Z,100432.46
2023-05-07T05:15:33.160Z,100438.55
2023-05-07T05:18:01.270Z,100438.94
2023-05-07T05:20:29.069Z,100432.39
2023-05-07T05:22:55.850Z,100427.53
2023-05-07T05:25:22.684Z,100425.63
2023-05-07T05:27:49.627Z,100423.05
2023-05-07T05:30:16.650Z,100422.52
2023-05-07T05:32:45.621Z,100424.05
2023-05-07T05:35:12.733Z,100426.12
2023-05-07T05:37:40.610Z,100431.46
2023-05-07T05:40:08.959Z,100429.30
2023-05-07T05:42:36.860Z,100426.00
2023-05-07T05:45:04.433Z,100424.13
2023-05-07T05:47:31.597Z,100424.82
2023-05-07T05:49:58.511Z,100426.19
2023-05-07T05:52:26.101Z,100427.46
2023-05-07T05:54:54.786Z,100422.60
2023-05-07T05:57:21.948Z,100421.73
2023-05-07T05:59:48.807Z,100420.83
2023-05-07T06:02:15.861Z,100419.73
2023-05-07T06:04:44.049Z,100422.42
2023-05-07T06:07:11.388Z,100426.24
2023-05-07T06:09:38.195Z,100427.63
2023-05-07T06:12:06.451Z,100424.16
2023-05-07T06:14:33.503Z,100427.23
2023-05-07T06:17:01.011Z,100428.62
2023-05-07T06:19:29.311Z,100428.52
2023-05-07T06:21:59.553Z,100432.31
2023-05-07T06:24:28.625Z,100439.80
2023-05-07T06:26:55.581Z,100439.61
2023-05-07T06:29:22.420Z,100441.59
2023-05-07T06:31:49.619Z,100444.47
2023-05-07T06:34:17.064Z,100447.80
2023-05-07T06:36:44.026Z,100444.34
2023-05-07T06:39:33.893Z,100449.39
2023-05-07T06:42:01.866Z,100451.59
2023-05-07T06:44:32.288Z,100448.52
2023-05-07T06:47:06.536Z,100448.23
2023-05-07T06:49:34.436Z,100450.16
2023-05-07T06:52:01.526Z,100451.68
2023-05-07T06:54:30.227Z,100450.36
2023-05-07T06:56:57.481Z,100450.72
2023-05-07T06:59:25.767Z,100447.59
2023-05-07T07:01:53.007Z,100448.42
2023-05-07T07:04:20.217Z,100448.40
2023-05-07T07:06:51.177Z,100444.92
2023-05-07T07:09:18.383Z,100443.11
2023-05-07T07:11:45.437Z,100447.56
2023-05-07T07:14:12.450Z,100445.41
2023-05-07T07:16:45.266Z,100444.20
2023-05-07T07:19:12.443Z,100444.30
2023-05-07T07:21:39.370Z,100442.09
2023-05-07T07:24:06.426Z,100439.70
2023-05-07T07:26:33.382Z,100434.03
2023-05-07T07:29:00.456Z,100436.27
2023-05-07T07:31:27.524Z,100437.64
2023-05-07T07:33:54.542Z,100439.73
2023-05-07T07:36:23.387Z,100438.38
2023-05-07T07:38:50.927Z,100437.21
2023-05-07T07:41:18.365Z,100439.14
2023-05-07T07:43:45.518Z,100438.31
2023-05-07T07:46:12.462Z,100434.33
2023-05-07T07:48:39.649Z,100430.76
2023-05-07T07:51:07.129Z,100431.89
2023-05-07T07:53:34.549Z,100429.19
2023-05-07T07:56:03.537Z,100430.41
2023-05-07T07:58:32.135Z,100429.55
2023-05-07T08:00:59.607Z,100430.29
2023-05-07T08:03:26.718Z,100436.01
2023-05-07T08:05:56.672Z,100435.27
2023-05-07T08:08:23.829Z,100435.94
2023-05-07T08:10:51.708Z,100436.42
2023-05-07T08:13:26.957Z,100436.73
2023-05-07T08:15:54.412Z,100439.61
2023-05-07T08:18:21.644Z,100440.56
2023-05-07T08:20:48.616Z,100436.91
2023-05-07T08:23:18.438Z,100440.78
2023-05-07T08:25:45.592Z,100435.36
2023-05-07T08:28:13.264Z,100432.30
2023-05-07T08:30:40.496Z,100432.40
2023-05-07T08:33:07.518Z,100431.11
2023-05-07T08:35:34.540Z,100432.48
2023-05-07T08:38:01.784Z,100432.73
2023-05-07T08:40:29.252Z,100430.35
2023-05-07T08:42:56.271Z,100429.46
2023-05-07T08:45:23.584Z,100435.59
2023-05-07T08:47:54.030Z,100433.70
2023-05-07T08:50:22.608Z,100434.16
2023-05-07T08:52:49.724Z,100438.35
2023-05-07T08:55:17.390Z,100434.16
2023-05-07T08:57:44.418Z,100437.36
2023-05-07T09:00:12.490Z,100433.34
2023-05-07T09:02:40.155Z,100428.88
2023-05-07T09:05:08.780Z,100439.95
2023-05-07T09:07:36.453Z,100442.66
2023-05-07T09:10:05.461Z,100441.64
2023-05-07T09:12:33.324Z,100445.00
2023-05-07T09:15:01.123Z,100448.58
2023-05-07T09:17:29.890Z,100447.95
2023-05-07T09:19:56.932Z,100449.22
2023-05-07T09:22:23.755Z,100449.31
2023-05-07T09:24:58.317Z,100446.70
2023-05-07T09:27:27.405Z,100443.55
2023-05-07T09:29:54.562Z,100443.83
2023-05-07T09:32:21.754Z,100442.66
2023-05-07T09:34:49.081Z,100445.90
2023-05-07T09:37:17.360Z,100446.97
2023-05-07T09:39:48.757Z,100450.31
2023-05-07T09:42:17.607Z,100450.96
2023-05-07T09:44:48.186Z,100451.61
2023-05-07T09:47:21.516Z,100449.54
2023-05-07T09:49:50.837Z,100451.55
2023-05-07T09:52:20.423Z,100443.79
2023-05-07T09:54:50.926Z,100440.12
2023-05-07T09:57:18.961Z,100444.25
2023-05-07T09:59:46.427Z,100450.02
2023-05-07T10:02:15.242Z,100448.10
2023-05-07T10:04:47.817Z,100445.69
2023-05-07T10:07:15.772Z,100440.39
2023-05-07T10:09:44.902Z,100430.94
2023-05-07T10:12:18.782Z,100428.39
2023-05-07T10:14:46.700Z,100420.60
2023-05-07T10:17:13.865Z,100421.52
2023-05-07T10:19:41.478Z,100427.00
2023-05-07T10:22:08.541Z,100420.48
2023-05-07T10:24:39.569Z,100417.50
2023-05-07T10:27:12.261Z,100409.38
2023-05-07T10:29:46.084Z,100411.88
2023-05-07T10:32:49.894Z,100409.88
2023-05-07T10:35:24.607Z,100411.75
2023-05-07T10:37:51.957Z,100409.73
2023-05-07T10:40:21.294Z,100404.80
2023-05-07T10:43:09.322Z,100396.88
2023-05-07T10:46:13.417Z,100398.44
2023-05-07T10:49:04.380Z,100399.91
2023-05-07T10:51:41.987Z,100404.70
2023-05-07T10:54:21.419Z,100412.08
2023-05-07T10:56:55.665Z,100417.65
2023-05-07T10:59:32.837Z,100416.27
2023-05-07T11:02:07.740Z,100406.23
2023-05-07T11:04:42.919Z,100400.00
2023-05-07T11:07:21.764Z,100391.80
2023-05-07T11:09:59.496Z,100386.01
2023-05-07T11:12:53.553Z,100384.61
2023-05-07T11:15:38.460Z,100383.87
2023-05-07T11:18:10.543Z,100381.05
2023-05-07T11:20:55.875Z,100382.48
2023-05-07T11:23:36.697Z,100396.45
2023-05-07T11:26:14.026Z,100407.36
2023-05-07T11:28:44.797Z,100405.77
2023-05-07T11:31:12.172Z,100402.94
2023-05-07T11:33:39.787Z,100393.02
2023-05-07T11:36:09.294Z,100395.19
2023-05-07T11:38:41.064Z,100393.87
2023-05-07T11:41:08.546Z,100396.06
2023-05-07T11:43:37.238Z,100397.19
2023-05-07T11:46:11.870Z,100393.32
2023-05-07T11:48:39.830Z,100389.36
2023-05-07T11:51:08.307Z,100389.40
2023-05-07T11:53:39.965Z,100385.80
2023-05-07T11:56:11.231Z,100385.13
2023-05-07T11:58:38.373Z,100377.55
2023-05-07T12:01:05.422Z,100376.90
2023-05-07T12:03:36.232Z,100376.56
2023-05-07T12:06:03.748Z,100376.62
2023-05-07T12:08:30.780Z,100378.84
2023-05-07T12:10:57.733Z,100381.44
2023-05-07T12:13:26.123Z,100374.98
2023-05-07T12:15:56.857Z,100372.39
2023-05-07T12:18:24.116Z,100369.83
2023-05-07T12:20:51.576Z,100361.25
2023-05-07T12:23:18.463Z,100360.61
2023-05-07T12:25:48.230Z,100359.06
2023-05-07T12:28:19.100Z,100358.92
2023-05-07T12:30:47.731Z,100357.75
2023-05-07T12:33:19.059Z,100355.88
2023-05-07T12:35:45.927Z,100360.81
2023-05-07T12:38:14.291Z,100355.35
2023-05-07T12:40:42.028Z,100357.90
2023-05-07T12:43:09.498Z,100357.75
2023-05-07T12:45:42.379Z,100358.44
2023-05-07T12:48:10.971Z,100357.45
2023-05-07T12:50:38.024Z,100362.81
2023-05-07T12:53:12.956Z,100360.05
2023-05-07T12:55:44.785Z,100357.80
2023-05-07T12:58:21.813Z,100353.02
2023-05-07T13:00:49.983Z,100344.92
2023-05-07T13:03:25.239Z,100344.83
2023-05-07T13:05:52.989Z,100346.21
2023-05-07T13:08:27.637Z,100348.13
2023-05-07T13:10:54.580Z,100346.71
2023-05-07T13:13:22.129Z,100343.99
2023-05-07T13:15:49.266Z,100341.00
2023-05-07T13:18:16.325Z,100345.44
2023-05-07T13:20:43.491Z,100342.89
2023-05-07T13:23:10.493Z,100343.71
2023-05-07T13:25:39.113Z,100346.73
2023-05-07T13:28:10.912Z,100345.52
2023-05-07T13:30:38.678Z,100343.95
2023-05-07T13:33:05.917Z,100346.97
2023-05-07T13:35:36.158Z,100347.02
2023-05-07T13:38:03.109Z,100344.77
2023-05-07T13:40:30.055Z,100342.25
2023-05-07T13:42:59.644Z,100342.83
2023-05-07T13:45:27.098Z,100343.31
2023-05-07T13:47:54.177Z,100340.27
2023-05-07T13:50:21.160Z,100344.06
2023-05-07T13:52:51.900Z,100344.54
2023-05-07T13:55:22.912Z,100341.02
2023-05-07T13:57:59.598Z,100336.70
2023-05-07T14:00:27.415Z,100338.61
2023-05-07T14:02:54.897Z,100336.28
2023-05-07T14:05:22.006Z,100335.34
2023-05-07T14:07:50.360Z,100331.76
2023-05-07T14:10:17.285Z,100330.66
2023-05-07T14:12:45.913Z,100330.23
2023-05-07T14:15:13.975Z,100328.83
2023-05-07T14:17:40.981Z,100329.52
2023-05-07T14:20:08.989Z,100330.91
2023-05-07T14:22:36.022Z,100332.67
2023-05-07T14:25:09.711Z,100332.73
2023-05-07T14:27:36.608Z,100334.09
2023-05-07T14:30:03.816Z,100335.10
2023-05-07T14:32:31.300Z,100336.48
2023-05-07T14:34:58.170Z,100328.08
2023-05-07T14:37:25.271Z,100331.52
2023-05-07T14:39:52.292Z,100327.64
2023-05-07T14:42:19.164Z,100331.48
2023-05-07T14:44:47.681Z,100329.55
2023-05-07T14:47:14.875Z,100329.95
2023-05-07T14:49:43.376Z,100332.07
2023-05-07T14:52:11.414Z,100329.26
2023-05-07T14:54:39.101Z,100325.26
2023-05-07T14:57:06.992Z,100322.70
2023-05-07T14:59:33.949Z,100326.65
2023-05-07T15:02:01.633Z,100328.27
2023-05-07T15:04:30.003Z,100335.48
2023-05-07T15:06:57.361Z,100339.52
2023-05-07T15:09:24.226Z,100343.17
2023-05-07T15:11:51.100Z,100351.91
2023-05-07T15:14:18.009Z,100355.60
2023-05-07T15:16:44.838Z,100354.06
2023-05-07T15:19:11.890Z,100355.41
2023-05-07T15:21:38.767Z,100357.36
2023-05-07T15:24:06.530Z,100358.81
2023-05-07T15:26:33.372Z,100356.55
2023-05-07T15:29:00.292Z,100354.96
2023-05-07T15:31:27.461Z,100356.19
2023-05-07T15:33:55.457Z,100361.25
2023-05-07T15:36:22.378Z,100356.67
2023-05-07T15:38:49.251Z,100358.28
2023-05-07T15:41:16.214Z,100358.52
2023-05-07T15:43:47.767Z,100353.77
2023-05-07T15:46:19.346Z,100350.94
2023-05-07T15:48:46.758Z,100354.08
2023-05-07T15:51:13.926Z,100350.95
2023-05-07T15:53:41.405Z,100349.59
2023-05-07T15:56:08.484Z,100348.73
2023-05-07T15:58:36.533Z,100351.55
2023-05-07T16:01:04.156Z,100356.79
2023-05-07T16:03:31.620Z,100355.08
2023-05-07T16:06:00.877Z,100353.48
2023-05-07T16:08:28.244Z,100361.86
2023-05-07T16:10:55.369Z,100361.33
2023-05-07T16:13:24.887Z,100364.48
2023-05-07T16:15:59.499Z,100365.52
2023-05-07T16:18:26.436Z,100360.95
2023-05-07T16:20:54.690Z,100362.70
2023-05-07T16:23:21.816Z,100359.69
2023-05-07T16:25:49.727Z,100359.89
2023-05-07T16:28:16.824Z,100359.38
2023-05-07T16:30:44.035Z,100359.58
2023-05-07T16:33:11.153Z,100356.65
2023-05-07T16:35:38.018Z,100355.63
2023-05-07T16:38:10.225Z,100356.55
2023-05-07T16:40:40.553Z,100358.04
2023-05-07T16:43:07.695Z,100361.26
2023-05-07T16:45:34.607Z,100366.20
2023-05-07T16:48:03.313Z,100365.58
2023-05-07T16:50:30.699Z,100366.35
2023-05-07T16:52:57.841Z,100370.14
2023-05-07T16:55:24.904Z,100372.18
2023-05-07T16:57:51.909Z,100367.70
2023-05-07T17:00:19.431Z,100367.79
2023-05-07T17:02:47.215Z,100369.11
2023-05-07T17:05:14.763Z,100370.08
2023-05-07T17:07:42.029Z,100368.60
2023-05-07T17:10:09.526Z,100371.51
2023-05-07T17:12:37.759Z,100374.04
2023-05-07T17:15:05.734Z,100375.16
2023-05-07T17:17:32.955Z,100374.52
2023-05-07T17:20:00.307Z,100376.48
2023-05-07T17:22:27.562Z,100375.48
2023-05-07T17:24:54.519Z,100374.80
2023-05-07T17:27:21.473Z,100379.05
2023-05-07T17:29:48.364Z,100380.33
2023-05-07T17:32:15.268Z,100383.48
2023-05-07T17:34:42.355Z,100390.54
2023-05-07T17:37:09.271Z,100389.89
2023-05-07T17:39:36.248Z,100385.03
2023-05-07T17:42:03.211Z,100389.52
2023-05-07T17:44:30.170Z,100390.78
2023-05-07T17:46:57.193Z,100394.30
2023-05-07T17:49:24.037Z,100396.13
2023-05-07T17:51:55.269Z,100392.98
2023-05-07T17:54:26.213Z,100394.05
2023-05-07T17:56:53.293Z,100396.53
2023-05-07T17:59:20.433Z,100396.73
2023-05-07T18:01:47.547Z,100398.52
2023-05-07T18:04:14.944Z,100399.92
2023-05-07T18:06:42.425Z,100404.69
2023-05-07T18:09:09.472Z,100404.55
2023-05-07T18:11:37.363Z,100407.55
2023-05-07T18:14:04.409Z,100411.40
2023-05-07T18:16:31.349Z,100412.45
2023-05-07T18:18:58.312Z,100411.58
2023-05-07T18:21:25.183Z,100419.13
2023-05-07T18:23:52.028Z,100417.02
2023-05-07T18:26:18.866Z,100415.63
2023-05-07T18:28:46.595Z,100417.94
2023-05-07T18:31:13.799Z,100419.17
2023-05-07T18:33:40.736Z,100419.36
2023-05-07T18:36:07.675Z,100422.39
2023-05-07T18:38:34.654Z,100424.84
2023-05-07T18:41:03.370Z,100424.85
2023-05-07T18:43:30.360Z,100426.96
2023-05-07T18:45:58.196Z,100426.61
2023-05-07T18:48:25.313Z,100427.34
2023-05-07T18:50:52.747Z,100422.96
2023-05-07T18:53:19.707Z,100423.35
2023-05-07T18:55:50.983Z,100425.80
2023-05-07T18:58:20.103Z,100424.26
2023-05-07T19:00:48.036Z,100424.99
2023-05-07T19:03:16.166Z,100426.05
2023-05-07T19:05:44.144Z,100428.38
2023-05-07T19:08:11.345Z,100430.84
2023-05-07T19:10:38.387Z,100429.98
2023-05-07T19:13:05.558Z,100430.33
2023-05-07T19:15:32.603Z,100432.39
2023-05-07T19:17:59.580Z,100428.20
2023-05-07T19:20:26.599Z,100427.33
2023-05-07T19:22:53.418Z,100426.79
2023-05-07T19:25:20.604Z,100431.18
2023-05-07T19:27:48.374Z,100429.81
2023-05-07T19:30:15.273Z,100428.26
2023-05-07T19:32:42.275Z,100425.66
2023-05-07T19:35:09.570Z,100428.83
2023-05-07T19:37:36.597Z,100426.03
2023-05-07T19:40:05.270Z,100426.77
2023-05-07T19:42:32.393Z,100427.13
2023-05-07T19:44:59.259Z,100425.23
2023-05-07T19:47:26.609Z,100422.64
2023-05-07T19:49:53.597Z,100419.86
2023-05-07T19:52:20.579Z,100420.93
2023-05-07T19:54:47.770Z,100425.36
2023-05-07T19:57:17.006Z,100422.60
2023-05-07T19:59:43.837Z,100427.69
2023-05-07T20:02:12.245Z,100431.73
2023-05-07T20:04:39.192Z,100430.15
2023-05-07T20:07:06.271Z,100429.46
2023-05-07T20:09:33.306Z,100428.44
2023-05-07T20:12:00.463Z,100429.16
2023-05-07T20:14:27.724Z,100430.40
2023-05-07T20:16:54.588Z,100428.48
2023-05-07T20:19:21.471Z,100428.84
2023-05-07T20:21:48.363Z,100435.65
2023-05-07T20:24:15.315Z,100441.08
2023-05-07T20:26:42.205Z,100440.77
2023-05-07T20:29:09.232Z,100441.10
2023-05-07T20:31:36.138Z,100441.98
2023-05-07T20:34:03.224Z,100442.70
2023-05-07T20:36:30.085Z,100442.20
2023-05-07T20:38:57.029Z,100445.55
2023-05-07T20:41:25.635Z,100451.56
2023-05-07T20:43:52.539Z,100451.44
2023-05-07T20:46:23.060Z,100451.27
2023-05-07T20:48:50.287Z,100450.73
2023-05-07T20:51:17.306Z,100455.48
2023-05-07T20:53:46.776Z,100452.67
2023-05-07T20:56:14.474Z,100449.53
2023-05-07T20:58:41.432Z,100443.92
2023-05-07T21:01:08.316Z,100445.15
2023-05-07T21:03:35.365Z,100445.35
2023-05-07T21:06:03.272Z,100445.71
2023-05-07T21:08:30.464Z,100451.69
2023-05-07T21:10:57.368Z,100457.83
2023-05-07T21:13:24.381Z,100460.27
2023-05-07T21:15:51.642Z,100465.34
2023-05-07T21:18:19.096Z,100474.42
2023-05-07T21:20:46.028Z,100477.02
2023-05-07T21:23:12.844Z,100480.38
2023-05-07T21:25:41.249Z,100477.96
2023-05-07T21:28:09.023Z,100477.09
2023-05-07T21:30:36.667Z,100472.54
2023-05-07T21:33:06.875Z,100473.96
2023-05-07T21:35:38.437Z,100471.72
2023-05-07T21:38:05.848Z,100469.31
2023-05-07T21:40:32.797Z,100480.88
2023-05-07T21:43:02.551Z,100480.39
2023-05-07T21:45:29.467Z,100486.58
2023-05-07T21:47:56.346Z,100485.23
2023-05-07T21:50:23.481Z,100482.67
2023-05-07T21:52:50.426Z,100485.35
2023-05-07T21:55:17.643Z,100488.22
2023-05-07T21:57:53.783Z,100487.22
2023-05-07T22:00:25.511Z,100485.48
2023-05-07T22:02:52.553Z,100484.43
2023-05-07T22:05:19.636Z,100486.90
2023-05-07T22:07:46.487Z,100491.08
2023-05-07T22:10:13.677Z,100486.36
2023-05-07T22:12:40.897Z,100488.11
2023-05-07T22:15:08.446Z,100485.48
2023-05-07T22:17:35.439Z,100487.06
2023-05-07T22:20:02.961Z,100482.55
2023-05-07T22:22:29.905Z,100490.42
2023-05-07T22:24:56.959Z,100491.70
2023-05-07T22:27:23.810Z,100485.44
2023-05-07T22:29:50.760Z,100486.00
2023-05-07T22:32:17.776Z,100485.48
2023-05-07T22:34:44.757Z,100488.27
2023-05-07T22:37:11.710Z,100490.19
2023-05-07T22:39:38.665Z,100489.31
2023-05-07T22:42:05.816Z,100487.22
2023-05-07T22:44:32.637Z,100489.31
2023-05-07T22:46:59.513Z,100490.02
2023-05-07T22:49:26.370Z,100485.69
2023-05-07T22:51:54.029Z,100489.88
2023-05-07T22:54:20.879Z,100485.52
2023-05-07T22:56:47.845Z,100487.48
2023-05-07T22:59:15.316Z,100487.35
2023-05-07T23:01:42.346Z,100490.19
2023-05-07T23:04:09.316Z,100487.95
2023-05-07T23:06:36.249Z,100484.11
2023-05-07T23:09:03.222Z,100485.00
2023-05-07T23:11:30.163Z,100479.96
2023-05-07T23:13:57.117Z,100474.38
2023-05-07T23:16:24.229Z,100472.11
2023-05-07T23:18:51.406Z,100471.77
2023-05-07T23:21:18.386Z,100472.14
2023-05-07T23:23:45.267Z,100472.48
2023-05-07T23:26:12.269Z,100468.80
2023-05-07T23:28:39.099Z,100469.48
2023-05-07T23:31:12.988Z,100470.62
2023-05-07T23:33:39.838Z,100471.20
2023-05-07T23:36:07.347Z,100472.44
2023-05-07T23:38:34.506Z,100472.45
2023-05-07T23:41:01.334Z,100468.42
2023-05-07T23:43:28.198Z,100473.48
2023-05-07T23:45:55.267Z,100470.39
2023-05-07T23:48:22.200Z,100472.50
2023-05-07T23:50:49.027Z,100472.16
2023-05-07T23:53:16.302Z,100473.58
2023-05-07T23:55:43.388Z,100477.98
2023-05-07T23:58:10.633Z,100477.31
